createdAt,value
2017-06-19T00:00:09.195Z,19.54
2017-06-19T00:00:37.194Z,19.52
2017-06-19T00:01:05.504Z,19.54
2017-06-19T00:01:33.797Z,19.53
2017-06-19T00:02:01.974Z,19.62
2017-06-19T00:02:30.269Z,19.44
2017-06-19T00:03:41.397Z,19.49
2017-06-19T00:04:09.578Z,19.41
2017-06-19T00:04:37.715Z,19.38
2017-06-19T00:05:06.008Z,19.41
2017-06-19T00:05:34.296Z,19.45
2017-06-19T00:06:02.383Z,19.42
2017-06-19T00:06:30.579Z,19.39
2017-06-19T00:06:58.703Z,19.44
2017-06-19T00:07:26.901Z,19.41
2017-06-19T00:07:55.079Z,19.37
2017-06-19T00:08:23.185Z,19.35
2017-06-19T00:09:34.225Z,19.35
2017-06-19T00:10:02.503Z,19.32
2017-06-19T00:10:30.830Z,19.26
2017-06-19T00:10:58.939Z,19.31
2017-06-19T00:11:27.136Z,19.32
2017-06-19T00:11:55.318Z,19.23
2017-06-19T00:12:23.518Z,19.31
2017-06-19T00:12:51.641Z,19.23
2017-06-19T00:13:19.841Z,19.22
2017-06-19T00:13:48.055Z,19.22
2017-06-19T00:14:16.251Z,19.34
2017-06-19T00:15:27.514Z,19.24
2017-06-19T00:15:55.604Z,19.22
2017-06-19T00:16:23.847Z,19.2
2017-06-19T00:16:52.049Z,19.2
2017-06-19T00:17:20.251Z,19.31
2017-06-19T00:17:48.539Z,19.24
2017-06-19T00:18:16.830Z,19.22
2017-06-19T00:18:45.137Z,19.26
2017-06-19T00:19:13.425Z,19.26
2017-06-19T00:19:41.611Z,19.24
2017-06-19T00:20:09.904Z,19.23
2017-06-19T00:21:21.153Z,19.15
2017-06-19T00:21:49.242Z,19.08
2017-06-19T00:22:17.480Z,19.09
2017-06-19T00:22:45.585Z,19.07
2017-06-19T00:23:13.687Z,19.13
2017-06-19T00:23:41.878Z,19.13
2017-06-19T00:24:10.171Z,19.16
2017-06-19T00:24:38.294Z,19.15
2017-06-19T00:25:06.442Z,19.12
2017-06-19T00:25:34.628Z,19.08
2017-06-19T00:26:02.822Z,19
2017-06-19T00:27:13.957Z,19.08
2017-06-19T00:27:42.146Z,18.97
2017-06-19T00:28:10.477Z,19.05
2017-06-19T00:28:38.579Z,18.98
2017-06-19T00:29:06.768Z,18.97
2017-06-19T00:29:34.867Z,19
2017-06-19T00:30:03.149Z,19
2017-06-19T00:30:31.272Z,19.01
2017-06-19T00:30:59.561Z,18.93
2017-06-19T00:31:27.746Z,18.91
2017-06-19T00:31:55.759Z,18.97
2017-06-19T00:33:07.087Z,18.94
2017-06-19T00:33:35.357Z,18.86
2017-06-19T00:34:03.643Z,18.89
2017-06-19T00:34:31.822Z,18.89
2017-06-19T00:35:00.098Z,18.91
2017-06-19T00:35:28.081Z,18.82
2017-06-19T00:35:56.263Z,18.94
2017-06-19T00:36:24.434Z,18.89
2017-06-19T00:36:52.734Z,18.89
2017-06-19T00:37:20.717Z,18.93
2017-06-19T00:37:48.804Z,18.83
2017-06-19T00:39:00.122Z,18.82
2017-06-19T00:39:28.295Z,18.82
2017-06-19T00:39:56.487Z,18.82
2017-06-19T00:40:24.657Z,18.81
2017-06-19T00:40:52.937Z,18.79
2017-06-19T00:41:21.207Z,18.83
2017-06-19T00:41:49.479Z,18.85
2017-06-19T00:42:17.654Z,18.85
2017-06-19T00:42:45.946Z,18.86
2017-06-19T00:43:14.214Z,18.82
2017-06-19T00:43:42.390Z,18.85
2017-06-19T00:44:53.522Z,18.75
2017-06-19T00:45:21.697Z,18.81
2017-06-19T00:45:49.889Z,18.76
2017-06-19T00:46:18.056Z,18.88
2017-06-19T00:46:46.335Z,18.76
2017-06-19T00:47:14.598Z,18.83
2017-06-19T00:47:42.771Z,18.75
2017-06-19T00:48:10.754Z,18.71
2017-06-19T00:48:39.043Z,18.7
2017-06-19T00:49:07.314Z,18.78
2017-06-19T00:49:35.580Z,18.75
2017-06-19T00:50:46.803Z,18.74
2017-06-19T00:51:14.974Z,18.74
2017-06-19T00:51:43.264Z,18.75
2017-06-19T00:52:11.339Z,18.75
2017-06-19T00:52:39.616Z,18.74
2017-06-19T00:53:07.603Z,18.74
2017-06-19T00:53:35.778Z,18.74
2017-06-19T00:54:03.951Z,18.81
2017-06-19T00:54:32.246Z,18.74
2017-06-19T00:55:00.424Z,18.7
2017-06-19T00:55:28.599Z,18.78
2017-06-19T00:56:39.641Z,18.64
2017-06-19T00:57:07.820Z,18.74
2017-06-19T00:57:36.108Z,18.68
2017-06-19T00:58:04.371Z,18.6
2017-06-19T00:58:32.641Z,18.71
2017-06-19T00:59:00.819Z,18.68
2017-06-19T00:59:29.089Z,18.63
2017-06-19T00:59:57.261Z,18.68
2017-06-19T01:00:25.454Z,18.74
2017-06-19T01:00:53.629Z,18.66
2017-06-19T01:01:21.802Z,18.68
2017-06-19T01:02:33.038Z,18.67
2017-06-19T01:03:01.213Z,18.66
2017-06-19T01:03:29.497Z,18.74
2017-06-19T01:03:57.569Z,18.68
2017-06-19T01:04:25.750Z,18.68
2017-06-19T01:04:53.740Z,18.74
2017-06-19T01:05:21.909Z,18.71
2017-06-19T01:05:50.169Z,18.67
2017-06-19T01:06:18.373Z,18.66
2017-06-19T01:06:46.550Z,18.78
2017-06-19T01:07:14.815Z,18.67
2017-06-19T01:08:26.139Z,18.68
2017-06-19T01:08:54.310Z,18.58
2017-06-19T01:09:22.601Z,18.67
2017-06-19T01:09:50.766Z,18.76
2017-06-19T01:10:18.946Z,18.67
2017-06-19T01:10:47.213Z,18.68
2017-06-19T01:11:15.496Z,18.68
2017-06-19T01:11:43.668Z,18.68
2017-06-19T01:12:11.958Z,18.74
2017-06-19T01:12:40.233Z,18.78
2017-06-19T01:13:08.500Z,18.68
2017-06-19T01:14:19.631Z,18.64
2017-06-19T01:14:47.807Z,18.71
2017-06-19T01:15:16.006Z,18.78
2017-06-19T01:15:44.082Z,18.67
2017-06-19T01:16:12.374Z,18.64
2017-06-19T01:16:40.547Z,18.64
2017-06-19T01:17:08.727Z,18.64
2017-06-19T01:17:36.896Z,18.66
2017-06-19T01:18:05.186Z,18.75
2017-06-19T01:18:33.364Z,18.66
2017-06-19T01:19:01.631Z,18.64
2017-06-19T01:20:12.947Z,18.67
2017-06-19T01:20:41.024Z,18.63
2017-06-19T01:21:09.316Z,18.67
2017-06-19T01:21:37.580Z,18.66
2017-06-19T01:22:05.857Z,18.66
2017-06-19T01:22:33.940Z,18.66
2017-06-19T01:23:02.212Z,18.7
2017-06-19T01:23:30.477Z,18.71
2017-06-19T01:23:58.676Z,18.6
2017-06-19T01:24:26.857Z,18.66
2017-06-19T01:24:55.034Z,18.6
2017-06-19T01:26:06.380Z,18.63
2017-06-19T01:26:34.464Z,18.66
2017-06-19T01:27:02.657Z,18.63
2017-06-19T01:27:30.546Z,18.63
2017-06-19T01:27:58.726Z,18.6
2017-06-19T01:28:26.897Z,18.61
2017-06-19T01:28:54.984Z,18.54
2017-06-19T01:29:22.968Z,18.57
2017-06-19T01:29:51.259Z,18.48
2017-06-19T01:30:19.438Z,18.56
2017-06-19T01:30:47.610Z,18.58
2017-06-19T01:31:58.844Z,18.51
2017-06-19T01:32:27.020Z,18.54
2017-06-19T01:32:55.313Z,18.56
2017-06-19T01:33:23.383Z,18.49
2017-06-19T01:33:51.566Z,18.49
2017-06-19T01:34:19.834Z,18.56
2017-06-19T01:34:48.109Z,18.46
2017-06-19T01:35:16.375Z,18.61
2017-06-19T01:35:44.669Z,18.57
2017-06-19T01:36:12.950Z,18.54
2017-06-19T01:36:41.023Z,18.54
2017-06-19T01:37:52.151Z,18.56
2017-06-19T01:38:20.320Z,18.57
2017-06-19T01:38:48.511Z,18.49
2017-06-19T01:39:16.679Z,18.48
2017-06-19T01:39:44.949Z,18.57
2017-06-19T01:40:13.216Z,18.49
2017-06-19T01:40:41.487Z,18.51
2017-06-19T01:41:09.467Z,18.56
2017-06-19T01:41:37.761Z,18.48
2017-06-19T01:42:05.937Z,18.46
2017-06-19T01:42:34.115Z,18.6
2017-06-19T01:43:45.432Z,18.51
2017-06-19T01:44:13.606Z,18.58
2017-06-19T01:44:41.802Z,18.49
2017-06-19T01:45:09.877Z,18.49
2017-06-19T01:45:38.152Z,18.56
2017-06-19T01:46:06.421Z,18.51
2017-06-19T01:46:34.593Z,18.57
2017-06-19T01:47:02.768Z,18.56
2017-06-19T01:47:31.065Z,18.52
2017-06-19T01:47:59.240Z,18.48
2017-06-19T01:48:27.415Z,18.46
2017-06-19T01:49:38.739Z,18.46
2017-06-19T01:50:06.915Z,18.52
2017-06-19T01:50:35.112Z,18.52
2017-06-19T01:51:03.284Z,18.52
2017-06-19T01:51:31.465Z,18.51
2017-06-19T01:51:59.732Z,18.48
2017-06-19T01:52:27.907Z,18.48
2017-06-19T01:52:56.169Z,18.51
2017-06-19T01:53:24.367Z,18.42
2017-06-19T01:53:52.640Z,18.45
2017-06-19T01:54:20.813Z,18.42
2017-06-19T01:55:32.039Z,18.45
2017-06-19T01:56:00.117Z,18.36
2017-06-19T01:56:28.413Z,18.45
2017-06-19T01:56:56.741Z,18.34
2017-06-19T01:57:24.942Z,18.41
2017-06-19T01:57:53.270Z,18.33
2017-06-19T01:58:21.583Z,18.38
2017-06-19T01:58:49.855Z,18.33
2017-06-19T01:59:18.149Z,18.31
2017-06-19T01:59:46.335Z,18.31
2017-06-19T02:00:14.500Z,18.26
2017-06-19T02:01:25.830Z,18.27
2017-06-19T02:01:54.007Z,18.33
2017-06-19T02:02:22.241Z,18.27
2017-06-19T02:02:50.319Z,18.27
2017-06-19T02:03:18.590Z,18.23
2017-06-19T02:03:46.603Z,18.31
2017-06-19T02:04:14.745Z,18.2
2017-06-19T02:04:42.822Z,18.23
2017-06-19T02:05:11.112Z,18.18
2017-06-19T02:05:39.103Z,18.27
2017-06-19T02:06:07.178Z,18.27
2017-06-19T02:07:18.305Z,18.21
2017-06-19T02:07:46.477Z,18.2
2017-06-19T02:08:14.667Z,18.24
2017-06-19T02:08:42.835Z,18.3
2017-06-19T02:09:11.109Z,18.24
2017-06-19T02:09:39.371Z,18.18
2017-06-19T02:10:07.638Z,18.23
2017-06-19T02:10:35.715Z,18.17
2017-06-19T02:11:04.005Z,18.15
2017-06-19T02:11:32.182Z,18.15
2017-06-19T02:12:00.259Z,18.17
2017-06-19T02:13:11.478Z,18.15
2017-06-19T02:13:39.571Z,18.2
2017-06-19T02:14:07.859Z,18.18
2017-06-19T02:14:36.028Z,18.26
2017-06-19T02:15:04.316Z,18.27
2017-06-19T02:15:32.502Z,18.2
2017-06-19T02:16:00.879Z,18.17
2017-06-19T02:16:29.052Z,18.11
2017-06-19T02:16:57.342Z,18.11
2017-06-19T02:17:25.515Z,18.11
2017-06-19T02:17:53.602Z,18.13
2017-06-19T02:19:04.824Z,18.12
2017-06-19T02:19:32.905Z,18.15
2017-06-19T02:20:01.189Z,18.26
2017-06-19T02:20:29.453Z,18.18
2017-06-19T02:20:57.633Z,18.15
2017-06-19T02:21:25.900Z,18.26
2017-06-19T02:21:54.075Z,18.15
2017-06-19T02:22:22.275Z,18.17
2017-06-19T02:22:50.459Z,18.17
2017-06-19T02:23:18.724Z,18.17
2017-06-19T02:23:46.805Z,18.2
2017-06-19T02:24:58.026Z,18.21
2017-06-19T02:25:26.203Z,18.13
2017-06-19T02:25:54.306Z,18.11
2017-06-19T02:26:22.570Z,18.09
2017-06-19T02:26:50.842Z,18.13
2017-06-19T02:27:18.823Z,18.13
2017-06-19T02:27:46.998Z,18.18
2017-06-19T02:28:15.075Z,18.02
2017-06-19T02:28:43.187Z,18.12
2017-06-19T02:29:11.364Z,18.13
2017-06-19T02:29:39.448Z,18.12
2017-06-19T02:30:50.667Z,18.13
2017-06-19T02:31:18.842Z,18.03
2017-06-19T02:31:46.941Z,18.13
2017-06-19T02:32:15.200Z,18.01
2017-06-19T02:32:43.192Z,18.05
2017-06-19T02:33:11.362Z,18.06
2017-06-19T02:33:39.535Z,18.02
2017-06-19T02:34:07.517Z,17.99
2017-06-19T02:34:35.810Z,17.97
2017-06-19T02:35:03.891Z,18.02
2017-06-19T02:35:32.159Z,18.05
2017-06-19T02:36:43.378Z,18.03
2017-06-19T02:37:11.552Z,18.02
2017-06-19T02:37:39.743Z,18.01
2017-06-19T02:38:07.724Z,17.99
2017-06-19T02:38:35.806Z,18.02
2017-06-19T02:39:03.977Z,18.01
2017-06-19T02:39:32.242Z,18.02
2017-06-19T02:40:00.413Z,18.06
2017-06-19T02:40:28.608Z,18.08
2017-06-19T02:40:56.782Z,18.03
2017-06-19T02:41:25.048Z,18.06
2017-06-19T02:42:36.172Z,18.08
2017-06-19T02:43:04.350Z,17.97
2017-06-19T02:43:32.633Z,18.08
2017-06-19T02:44:00.705Z,17.97
2017-06-19T02:44:28.884Z,18.06
2017-06-19T02:44:56.965Z,17.96
2017-06-19T02:45:25.228Z,17.97
2017-06-19T02:45:53.305Z,17.94
2017-06-19T02:46:21.599Z,18.01
2017-06-19T02:46:49.867Z,18.01
2017-06-19T02:47:18.035Z,17.97
2017-06-19T02:48:29.173Z,17.96
2017-06-19T02:48:57.430Z,17.96
2017-06-19T02:49:25.716Z,17.9
2017-06-19T02:49:53.981Z,17.99
2017-06-19T02:50:22.257Z,17.97
2017-06-19T02:50:50.332Z,17.97
2017-06-19T02:51:18.597Z,18.01
2017-06-19T02:51:46.765Z,17.99
2017-06-19T02:52:14.969Z,17.96
2017-06-19T02:52:43.236Z,17.94
2017-06-19T02:53:11.409Z,18.01
2017-06-19T02:54:22.724Z,18.03
2017-06-19T02:54:50.904Z,17.96
2017-06-19T02:55:19.090Z,17.97
2017-06-19T02:55:47.166Z,17.99
2017-06-19T02:56:15.442Z,17.99
2017-06-19T02:56:43.520Z,18.02
2017-06-19T02:57:11.785Z,18.02
2017-06-19T02:57:40.053Z,18.02
2017-06-19T02:58:08.350Z,18.01
2017-06-19T02:58:36.620Z,17.94
2017-06-19T02:59:04.883Z,17.96
2017-06-19T03:00:16.009Z,17.94
2017-06-19T03:00:44.280Z,17.94
2017-06-19T03:01:12.472Z,17.88
2017-06-19T03:01:40.640Z,17.94
2017-06-19T03:02:08.912Z,17.9
2017-06-19T03:02:36.989Z,17.91
2017-06-19T03:03:05.165Z,17.93
2017-06-19T03:03:33.237Z,17.91
2017-06-19T03:04:01.432Z,17.93
2017-06-19T03:04:29.613Z,17.97
2017-06-19T03:04:57.786Z,18.03
2017-06-19T03:06:09.103Z,18.02
2017-06-19T03:06:37.281Z,18.03
2017-06-19T03:07:05.483Z,18.11
2017-06-19T03:07:33.655Z,18.08
2017-06-19T03:08:01.838Z,18.03
2017-06-19T03:08:30.105Z,18.01
2017-06-19T03:08:58.282Z,17.99
2017-06-19T03:09:26.452Z,18.03
2017-06-19T03:09:54.650Z,17.96
2017-06-19T03:10:22.922Z,18.08
2017-06-19T03:10:51.091Z,17.97
2017-06-19T03:12:02.404Z,17.94
2017-06-19T03:12:30.577Z,17.99
2017-06-19T03:12:58.772Z,18.01
2017-06-19T03:13:26.943Z,17.9
2017-06-19T03:13:55.125Z,18.02
2017-06-19T03:14:23.296Z,17.93
2017-06-19T03:14:51.475Z,17.99
2017-06-19T03:15:19.736Z,17.97
2017-06-19T03:15:47.942Z,17.93
2017-06-19T03:16:16.215Z,17.96
2017-06-19T03:16:44.385Z,17.99
2017-06-19T03:17:55.514Z,17.99
2017-06-19T03:18:23.688Z,17.86
2017-06-19T03:18:51.887Z,17.9
2017-06-19T03:19:20.053Z,17.91
2017-06-19T03:19:48.141Z,17.94
2017-06-19T03:20:16.216Z,17.91
2017-06-19T03:20:44.483Z,17.88
2017-06-19T03:21:12.464Z,17.91
2017-06-19T03:21:40.760Z,17.93
2017-06-19T03:22:08.941Z,17.88
2017-06-19T03:22:37.143Z,17.9
2017-06-19T03:23:48.238Z,17.9
2017-06-19T03:24:16.317Z,17.93
2017-06-19T03:24:44.506Z,17.93
2017-06-19T03:25:12.678Z,17.97
2017-06-19T03:25:40.857Z,17.9
2017-06-19T03:26:09.030Z,17.91
2017-06-19T03:26:37.110Z,17.81
2017-06-19T03:27:05.281Z,17.97
2017-06-19T03:27:33.573Z,17.99
2017-06-19T03:28:01.650Z,18.01
2017-06-19T03:28:29.920Z,17.91
2017-06-19T03:29:41.049Z,18.02
2017-06-19T03:30:09.042Z,18.03
2017-06-19T03:30:37.327Z,18.01
2017-06-19T03:31:05.497Z,18.02
2017-06-19T03:31:33.777Z,18.03
2017-06-19T03:32:01.952Z,18.01
2017-06-19T03:32:30.224Z,18.05
2017-06-19T03:32:58.486Z,18.06
2017-06-19T03:33:26.779Z,18.03
2017-06-19T03:33:54.954Z,17.97
2017-06-19T03:34:23.229Z,18.11
2017-06-19T03:35:34.546Z,18.12
2017-06-19T03:36:02.721Z,18.13
2017-06-19T03:36:30.913Z,18.13
2017-06-19T03:36:59.177Z,18.13
2017-06-19T03:37:27.448Z,18.11
2017-06-19T03:37:55.617Z,18.02
2017-06-19T03:38:23.882Z,17.99
2017-06-19T03:38:52.052Z,18.05
2017-06-19T03:39:20.342Z,18.11
2017-06-19T03:39:48.614Z,18.01
2017-06-19T03:40:16.691Z,18.03
2017-06-19T03:41:28.006Z,18.13
2017-06-19T03:41:56.084Z,18.03
2017-06-19T03:42:24.270Z,18.01
2017-06-19T03:42:52.349Z,18.09
2017-06-19T03:43:20.615Z,18.05
2017-06-19T03:43:48.881Z,18.02
2017-06-19T03:44:17.143Z,17.99
2017-06-19T03:44:45.412Z,17.99
2017-06-19T03:45:13.700Z,18.05
2017-06-19T03:45:41.871Z,18.02
2017-06-19T03:46:10.041Z,17.99
2017-06-19T03:47:21.360Z,17.97
2017-06-19T03:47:49.533Z,18.09
2017-06-19T03:48:17.722Z,18.06
2017-06-19T03:48:45.888Z,18.03
2017-06-19T03:49:14.159Z,18.08
2017-06-19T03:49:42.238Z,18.01
2017-06-19T03:50:10.502Z,18.03
2017-06-19T03:50:38.672Z,18.02
2017-06-19T03:51:06.959Z,17.99
2017-06-19T03:51:35.138Z,17.97
2017-06-19T03:52:03.305Z,18.12
2017-06-19T03:53:14.528Z,18.11
2017-06-19T03:53:42.701Z,18.05
2017-06-19T03:54:10.983Z,18.11
2017-06-19T03:54:39.065Z,18.13
2017-06-19T03:55:07.333Z,18.12
2017-06-19T03:55:35.508Z,18.03
2017-06-19T03:56:03.775Z,18.03
2017-06-19T03:56:31.950Z,18.12
2017-06-19T03:57:00.144Z,17.99
2017-06-19T03:57:28.411Z,18.08
2017-06-19T03:57:56.674Z,18.03
2017-06-19T03:59:07.895Z,18.05
2017-06-19T03:59:36.073Z,18.01
2017-06-19T04:00:04.261Z,18.06
2017-06-19T04:00:32.430Z,18.03
2017-06-19T04:01:00.508Z,18.05
2017-06-19T04:01:28.771Z,18.15
2017-06-19T04:01:56.850Z,18.13
2017-06-19T04:02:24.924Z,18.11
2017-06-19T04:02:53.216Z,18.17
2017-06-19T04:03:21.299Z,18.15
2017-06-19T04:03:49.565Z,18.12
2017-06-19T04:05:00.881Z,18.26
2017-06-19T04:05:29.053Z,18.2
2017-06-19T04:05:57.338Z,18.15
2017-06-19T04:06:25.512Z,18.15
2017-06-19T04:06:53.688Z,18.18
2017-06-19T04:07:21.858Z,18.23
2017-06-19T04:07:49.932Z,18.12
2017-06-19T04:08:18.103Z,18.15
2017-06-19T04:08:46.397Z,18.12
2017-06-19T04:09:14.481Z,18.17
2017-06-19T04:09:42.740Z,18.26
2017-06-19T04:10:53.966Z,18.24
2017-06-19T04:11:22.233Z,18.18
2017-06-19T04:11:50.420Z,18.3
2017-06-19T04:12:18.596Z,18.27
2017-06-19T04:12:46.768Z,18.13
2017-06-19T04:13:14.937Z,18.27
2017-06-19T04:13:43.106Z,18.23
2017-06-19T04:14:11.180Z,18.15
2017-06-19T04:14:39.379Z,18.3
2017-06-19T04:15:07.652Z,18.17
2017-06-19T04:15:35.825Z,18.21
2017-06-19T04:16:47.144Z,18.12
2017-06-19T04:17:15.314Z,18.17
2017-06-19T04:17:43.500Z,18.21
2017-06-19T04:18:11.664Z,18.2
2017-06-19T04:18:39.933Z,18.2
2017-06-19T04:19:08.102Z,18.15
2017-06-19T04:19:36.275Z,18.15
2017-06-19T04:20:04.446Z,18.24
2017-06-19T04:20:32.735Z,18.26
2017-06-19T04:21:00.820Z,18.24
2017-06-19T04:21:28.898Z,18.18
2017-06-19T04:22:40.031Z,18.31
2017-06-19T04:23:08.112Z,18.27
2017-06-19T04:23:36.205Z,18.23
2017-06-19T04:24:04.469Z,18.28
2017-06-19T04:24:32.739Z,18.26
2017-06-19T04:25:00.818Z,18.26
2017-06-19T04:25:28.900Z,18.3
2017-06-19T04:25:57.071Z,18.26
2017-06-19T04:26:25.358Z,18.12
2017-06-19T04:26:53.439Z,18.13
2017-06-19T04:27:21.615Z,18.3
2017-06-19T04:28:32.838Z,18.26
2017-06-19T04:29:00.918Z,18.3
2017-06-19T04:29:29.027Z,18.12
2017-06-19T04:29:57.015Z,18.2
2017-06-19T04:30:25.180Z,18.17
2017-06-19T04:30:53.251Z,18.24
2017-06-19T04:31:21.513Z,18.11
2017-06-19T04:31:49.779Z,18.21
2017-06-19T04:32:17.789Z,18.15
2017-06-19T04:32:45.969Z,18.18
2017-06-19T04:33:14.231Z,18.17
2017-06-19T04:34:25.545Z,18.17
2017-06-19T04:34:53.810Z,18.24
2017-06-19T04:35:22.089Z,18.24
2017-06-19T04:35:50.258Z,18.11
2017-06-19T04:36:18.431Z,18.24
2017-06-19T04:36:46.691Z,18.2
2017-06-19T04:37:14.959Z,18.13
2017-06-19T04:37:43.128Z,18.12
2017-06-19T04:38:11.411Z,18.08
2017-06-19T04:38:39.590Z,18.26
2017-06-19T04:39:07.566Z,18.24
2017-06-19T04:40:18.692Z,18.15
2017-06-19T04:40:46.770Z,18.13
2017-06-19T04:41:14.863Z,18.13
2017-06-19T04:41:43.038Z,18.15
2017-06-19T04:42:11.118Z,18.18
2017-06-19T04:42:39.097Z,18.09
2017-06-19T04:43:07.176Z,18.2
2017-06-19T04:43:35.260Z,18.11
2017-06-19T04:44:03.543Z,18.12
2017-06-19T04:44:31.625Z,18.08
2017-06-19T04:44:59.606Z,18.13
2017-06-19T04:46:10.923Z,18.13
2017-06-19T04:46:38.999Z,18.11
2017-06-19T04:47:07.285Z,18.03
2017-06-19T04:47:35.357Z,18.08
2017-06-19T04:48:03.629Z,18.11
2017-06-19T04:48:31.794Z,17.99
2017-06-19T04:49:00.062Z,18.06
2017-06-19T04:49:28.325Z,18.03
2017-06-19T04:49:56.517Z,18.06
2017-06-19T04:50:24.692Z,18.02
2017-06-19T04:50:52.860Z,18.03
2017-06-19T04:52:04.080Z,18.01
2017-06-19T04:52:32.160Z,18.02
2017-06-19T04:53:00.443Z,17.93
2017-06-19T04:53:28.609Z,17.99
2017-06-19T04:53:56.687Z,17.99
2017-06-19T04:54:24.947Z,18.02
2017-06-19T04:54:53.211Z,17.99
2017-06-19T04:55:21.291Z,18.03
2017-06-19T04:55:49.480Z,18.01
2017-06-19T04:56:17.563Z,17.94
2017-06-19T04:56:45.637Z,17.94
2017-06-19T04:57:56.949Z,17.94
2017-06-19T04:58:25.120Z,17.91
2017-06-19T04:58:53.403Z,17.91
2017-06-19T04:59:21.572Z,17.91
2017-06-19T04:59:49.837Z,17.93
2017-06-19T05:00:18.099Z,17.9
2017-06-19T05:00:46.365Z,17.94
2017-06-19T05:01:14.628Z,17.88
2017-06-19T05:01:42.918Z,17.88
2017-06-19T05:02:11.098Z,17.83
2017-06-19T05:02:39.368Z,17.84
2017-06-19T05:03:50.592Z,17.87
2017-06-19T05:04:18.860Z,17.79
2017-06-19T05:04:46.953Z,17.78
2017-06-19T05:05:15.213Z,17.78
2017-06-19T05:05:43.476Z,17.72
2017-06-19T05:06:11.553Z,17.78
2017-06-19T05:06:39.725Z,17.79
2017-06-19T05:07:07.982Z,17.72
2017-06-19T05:07:36.271Z,17.78
2017-06-19T05:08:04.254Z,17.81
2017-06-19T05:08:32.425Z,17.83
2017-06-19T05:09:43.452Z,17.76
2017-06-19T05:10:11.629Z,17.83
2017-06-19T05:10:39.631Z,17.76
2017-06-19T05:11:07.713Z,17.81
2017-06-19T05:11:35.885Z,17.79
2017-06-19T05:12:03.957Z,17.75
2017-06-19T05:12:32.034Z,17.81
2017-06-19T05:13:00.204Z,17.72
2017-06-19T05:13:28.398Z,17.81
2017-06-19T05:13:56.475Z,17.81
2017-06-19T05:14:24.738Z,17.75
2017-06-19T05:15:35.948Z,17.68
2017-06-19T05:16:04.116Z,17.69
2017-06-19T05:16:32.399Z,17.69
2017-06-19T05:17:00.562Z,17.66
2017-06-19T05:17:28.737Z,17.65
2017-06-19T05:17:56.905Z,17.68
2017-06-19T05:18:24.978Z,17.69
2017-06-19T05:18:53.050Z,17.65
2017-06-19T05:19:21.335Z,17.63
2017-06-19T05:19:49.510Z,17.71
2017-06-19T05:20:17.678Z,17.66
2017-06-19T05:21:28.991Z,17.65
2017-06-19T05:21:57.255Z,17.66
2017-06-19T05:22:25.438Z,17.65
2017-06-19T05:22:53.602Z,17.71
2017-06-19T05:23:21.677Z,17.69
2017-06-19T05:23:49.654Z,17.66
2017-06-19T05:24:17.822Z,17.66
2017-06-19T05:24:45.991Z,17.71
2017-06-19T05:25:14.276Z,17.66
2017-06-19T05:25:42.355Z,17.69
2017-06-19T05:26:10.620Z,17.71
2017-06-19T05:27:21.935Z,17.69
2017-06-19T05:27:50.106Z,17.56
2017-06-19T05:28:18.293Z,17.65
2017-06-19T05:28:46.363Z,17.65
2017-06-19T05:29:14.539Z,17.69
2017-06-19T05:29:42.800Z,17.65
2017-06-19T05:30:11.061Z,17.68
2017-06-19T05:30:39.325Z,17.66
2017-06-19T05:31:07.608Z,17.65
2017-06-19T05:31:35.879Z,17.65
2017-06-19T05:32:03.862Z,17.68
2017-06-19T05:33:14.985Z,17.62
2017-06-19T05:33:43.249Z,17.69
2017-06-19T05:34:11.432Z,17.62
2017-06-19T05:34:39.504Z,17.71
2017-06-19T05:35:07.773Z,17.71
2017-06-19T05:35:36.041Z,17.71
2017-06-19T05:36:04.210Z,17.72
2017-06-19T05:36:32.283Z,17.57
2017-06-19T05:37:00.572Z,17.59
2017-06-19T05:37:28.841Z,17.56
2017-06-19T05:37:56.916Z,17.54
2017-06-19T05:39:08.044Z,17.68
2017-06-19T05:39:36.121Z,17.52
2017-06-19T05:40:04.309Z,17.63
2017-06-19T05:40:32.480Z,17.5
2017-06-19T05:41:00.748Z,17.5
2017-06-19T05:41:28.823Z,17.54
2017-06-19T05:41:56.993Z,17.57
2017-06-19T05:42:25.251Z,17.52
2017-06-19T05:42:53.446Z,17.53
2017-06-19T05:43:21.526Z,17.57
2017-06-19T05:43:49.818Z,17.46
2017-06-19T05:45:01.043Z,17.49
2017-06-19T05:45:29.104Z,17.38
2017-06-19T05:45:57.374Z,17.5
2017-06-19T05:46:25.631Z,17.45
2017-06-19T05:46:53.804Z,17.5
2017-06-19T05:47:21.976Z,17.43
2017-06-19T05:47:50.055Z,17.52
2017-06-19T05:48:18.220Z,17.52
2017-06-19T05:48:46.322Z,17.5
2017-06-19T05:49:14.598Z,17.49
2017-06-19T05:49:42.677Z,17.5
2017-06-19T05:50:53.898Z,17.43
2017-06-19T05:51:21.975Z,17.39
2017-06-19T05:51:50.260Z,17.45
2017-06-19T05:52:18.428Z,17.49
2017-06-19T05:52:46.603Z,17.38
2017-06-19T05:53:14.676Z,17.52
2017-06-19T05:53:42.852Z,17.52
2017-06-19T05:54:10.921Z,17.5
2017-06-19T05:54:38.932Z,17.5
2017-06-19T05:55:07.106Z,17.5
2017-06-19T05:55:35.272Z,17.43
2017-06-19T05:56:46.585Z,17.5
2017-06-19T05:57:14.759Z,17.53
2017-06-19T05:57:43.044Z,17.43
2017-06-19T05:58:11.121Z,17.46
2017-06-19T05:58:39.201Z,17.46
2017-06-19T05:59:07.375Z,17.5
2017-06-19T05:59:35.645Z,17.38
2017-06-19T06:00:03.906Z,17.46
2017-06-19T06:00:32.011Z,17.52
2017-06-19T06:01:00.185Z,17.34
2017-06-19T06:01:28.265Z,17.49
2017-06-19T06:02:39.484Z,17.41
2017-06-19T06:03:07.661Z,17.43
2017-06-19T06:03:35.948Z,17.39
2017-06-19T06:04:04.215Z,17.37
2017-06-19T06:04:32.299Z,17.35
2017-06-19T06:05:00.468Z,17.45
2017-06-19T06:05:28.648Z,17.37
2017-06-19T06:05:56.721Z,17.38
2017-06-19T06:06:24.823Z,17.38
2017-06-19T06:06:52.997Z,17.37
2017-06-19T06:07:21.264Z,17.37
2017-06-19T06:08:32.481Z,17.37
2017-06-19T06:09:00.652Z,17.35
2017-06-19T06:09:28.935Z,17.37
2017-06-19T06:09:57.100Z,17.37
2017-06-19T06:10:25.184Z,17.32
2017-06-19T06:10:53.452Z,17.37
2017-06-19T06:11:21.625Z,17.37
2017-06-19T06:11:49.888Z,17.38
2017-06-19T06:12:18.176Z,17.41
2017-06-19T06:12:46.355Z,17.39
2017-06-19T06:13:14.526Z,17.39
2017-06-19T06:14:25.838Z,17.37
2017-06-19T06:14:53.916Z,17.43
2017-06-19T06:15:22.108Z,17.43
2017-06-19T06:15:50.188Z,17.46
2017-06-19T06:16:18.273Z,17.35
2017-06-19T06:16:46.442Z,17.39
2017-06-19T06:17:14.708Z,17.39
2017-06-19T06:17:42.875Z,17.38
2017-06-19T06:18:11.170Z,17.43
2017-06-19T06:18:39.440Z,17.39
2017-06-19T06:19:07.709Z,17.37
2017-06-19T06:20:19.022Z,17.39
2017-06-19T06:20:47.196Z,17.43
2017-06-19T06:21:15.481Z,17.45
2017-06-19T06:21:43.649Z,17.43
2017-06-19T06:22:11.827Z,17.41
2017-06-19T06:22:40.092Z,17.38
2017-06-19T06:23:08.174Z,17.39
2017-06-19T06:23:36.433Z,17.35
2017-06-19T06:24:04.637Z,17.37
2017-06-19T06:24:32.816Z,17.34
2017-06-19T06:25:00.897Z,17.35
2017-06-19T06:26:12.209Z,17.37
2017-06-19T06:26:40.477Z,17.39
2017-06-19T06:27:08.667Z,17.34
2017-06-19T06:27:36.930Z,17.39
2017-06-19T06:28:05.107Z,17.37
2017-06-19T06:28:33.376Z,17.35
2017-06-19T06:29:01.546Z,17.37
2017-06-19T06:29:29.807Z,17.45
2017-06-19T06:29:57.912Z,17.41
2017-06-19T06:30:25.993Z,17.38
2017-06-19T06:30:54.067Z,17.37
2017-06-19T06:32:05.197Z,17.37
2017-06-19T06:32:33.460Z,17.37
2017-06-19T06:33:01.554Z,17.34
2017-06-19T06:33:29.723Z,17.34
2017-06-19T06:33:57.997Z,17.37
2017-06-19T06:34:26.166Z,17.35
2017-06-19T06:34:54.344Z,17.28
2017-06-19T06:35:22.522Z,17.31
2017-06-19T06:35:50.813Z,17.34
2017-06-19T06:36:18.987Z,17.37
2017-06-19T06:36:47.163Z,17.35
2017-06-19T06:37:58.381Z,17.27
2017-06-19T06:38:26.647Z,17.35
2017-06-19T06:38:54.933Z,17.3
2017-06-19T06:39:23.105Z,17.38
2017-06-19T06:39:51.284Z,17.35
2017-06-19T06:40:19.172Z,17.32
2017-06-19T06:40:47.344Z,17.34
2017-06-19T06:41:15.419Z,17.28
2017-06-19T06:41:43.619Z,17.34
2017-06-19T06:42:11.703Z,17.37
2017-06-19T06:42:39.968Z,17.28
2017-06-19T06:43:51.094Z,17.34
2017-06-19T06:44:19.268Z,17.31
2017-06-19T06:44:47.460Z,17.27
2017-06-19T06:45:15.725Z,17.31
2017-06-19T06:45:43.996Z,17.25
2017-06-19T06:46:12.097Z,17.25
2017-06-19T06:46:40.366Z,17.38
2017-06-19T06:47:08.441Z,17.24
2017-06-19T06:47:36.641Z,17.27
2017-06-19T06:48:04.753Z,17.28
2017-06-19T06:48:32.928Z,17.31
2017-06-19T06:49:44.146Z,17.28
2017-06-19T06:50:12.319Z,17.27
2017-06-19T06:50:40.510Z,17.28
2017-06-19T06:51:08.773Z,17.25
2017-06-19T06:51:37.038Z,17.31
2017-06-19T06:52:05.114Z,17.24
2017-06-19T06:52:33.388Z,17.25
2017-06-19T06:53:01.555Z,17.25
2017-06-19T06:53:29.754Z,17.25
2017-06-19T06:53:57.931Z,17.27